sensor_id;sensor_type;location;lat;lon;timestamp;temperature;humidity
28175;SHT30;59417;44.788;10.334;2023-09-08T00:01:47;21.47;61.88
28175;SHT30;59417;44.788;10.334;2023-09-08T00:04:13;21.62;61.55
28175;SHT30;59417;44.788;10.334;2023-09-08T00:06:40;21.83;60.78
28175;SHT30;59417;44.788;10.334;2023-09-08T00:09:06;21.65;61.61
28175;SHT30;59417;44.788;10.334;2023-09-08T00:11:32;21.50;61.59
28175;SHT30;59417;44.788;10.334;2023-09-08T00:13:57;21.53;61.67
28175;SHT30;59417;44.788;10.334;2023-09-08T00:16:23;21.31;62.20
28175;SHT30;59417;44.788;10.334;2023-09-08T00:18:49;21.26;62.29
28175;SHT30;59417;44.788;10.334;2023-09-08T00:21:14;21.50;61.81
28175;SHT30;59417;44.788;10.334;2023-09-08T00:23:40;21.83;60.22
28175;SHT30;59417;44.788;10.334;2023-09-08T00:26:06;21.65;61.31
28175;SHT30;59417;44.788;10.334;2023-09-08T00:28:31;21.55;61.66
28175;SHT30;59417;44.788;10.334;2023-09-08T00:30:58;21.56;61.79
28175;SHT30;59417;44.788;10.334;2023-09-08T00:33:25;21.57;61.61
28175;SHT30;59417;44.788;10.334;2023-09-08T00:35:51;21.53;61.52
28175;SHT30;59417;44.788;10.334;2023-09-08T00:38:17;21.57;60.92
28175;SHT30;59417;44.788;10.334;2023-09-08T00:40:42;22.03;59.05
28175;SHT30;59417;44.788;10.334;2023-09-08T00:43:08;22.18;58.61
28175;SHT30;59417;44.788;10.334;2023-09-08T00:45:35;22.10;58.67
28175;SHT30;59417;44.788;10.334;2023-09-08T00:48:03;22.08;58.65
28175;SHT30;59417;44.788;10.334;2023-09-08T00:50:28;22.13;58.43
28175;SHT30;59417;44.788;10.334;2023-09-08T00:55:41;21.87;59.26
28175;SHT30;59417;44.788;10.334;2023-09-08T00:58:07;21.73;59.64
28175;SHT30;59417;44.788;10.334;2023-09-08T01:00:33;21.84;59.60
28175;SHT30;59417;44.788;10.334;2023-09-08T01:02:59;21.73;59.88
28175;SHT30;59417;44.788;10.334;2023-09-08T01:05:25;21.70;60.43
28175;SHT30;59417;44.788;10.334;2023-09-08T01:07:50;21.60;60.34
28175;SHT30;59417;44.788;10.334;2023-09-08T01:10:16;21.49;60.41
28175;SHT30;59417;44.788;10.334;2023-09-08T01:12:41;21.71;59.95
28175;SHT30;59417;44.788;10.334;2023-09-08T01:15:07;21.63;60.18
28175;SHT30;59417;44.788;10.334;2023-09-08T01:17:34;21.66;61.18
28175;SHT30;59417;44.788;10.334;2023-09-08T01:20:01;21.41;62.19
28175;SHT30;59417;44.788;10.334;2023-09-08T01:27:29;21.31;61.70
28175;SHT30;59417;44.788;10.334;2023-09-08T01:29:57;21.19;61.63
28175;SHT30;59417;44.788;10.334;2023-09-08T01:32:24;21.14;61.63
28175;SHT30;59417;44.788;10.334;2023-09-08T01:34:50;21.36;60.68
28175;SHT30;59417;44.788;10.334;2023-09-08T01:37:15;21.45;60.34
28175;SHT30;59417;44.788;10.334;2023-09-08T01:39:41;21.22;60.76
28175;SHT30;59417;44.788;10.334;2023-09-08T01:42:06;21.33;60.50
28175;SHT30;59417;44.788;10.334;2023-09-08T01:44:32;21.15;60.78
28175;SHT30;59417;44.788;10.334;2023-09-08T01:46:57;21.05;61.25
28175;SHT30;59417;44.788;10.334;2023-09-08T01:49:23;20.96;62.17
28175;SHT30;59417;44.788;10.334;2023-09-08T01:51:49;21.02;62.00
28175;SHT30;59417;44.788;10.334;2023-09-08T01:54:15;20.95;61.96
28175;SHT30;59417;44.788;10.334;2023-09-08T01:56:41;21.12;61.43
28175;SHT30;59417;44.788;10.334;2023-09-08T01:59:06;21.43;60.05
28175;SHT30;59417;44.788;10.334;2023-09-08T02:01:32;21.32;60.44
28175;SHT30;59417;44.788;10.334;2023-09-08T02:03:57;21.08;61.19
28175;SHT30;59417;44.788;10.334;2023-09-08T02:06:23;21.08;60.82
28175;SHT30;59417;44.788;10.334;2023-09-08T02:08:48;20.99;60.93
28175;SHT30;59417;44.788;10.334;2023-09-08T02:11:14;21.05;61.00
28175;SHT30;59417;44.788;10.334;2023-09-08T02:13:42;21.36;59.38
28175;SHT30;59417;44.788;10.334;2023-09-08T02:16:12;21.36;59.40
28175;SHT30;59417;44.788;10.334;2023-09-08T02:18:38;21.16;61.88
28175;SHT30;59417;44.788;10.334;2023-09-08T02:21:04;20.61;62.26
28175;SHT30;59417;44.788;10.334;2023-09-08T02:23:30;20.58;62.55
28175;SHT30;59417;44.788;10.334;2023-09-08T02:25:55;20.85;61.30
28175;SHT30;59417;44.788;10.334;2023-09-08T02:28:20;20.77;61.85
28175;SHT30;59417;44.788;10.334;2023-09-08T02:30:46;20.70;62.12
28175;SHT30;59417;44.788;10.334;2023-09-08T02:33:12;21.01;60.81
28175;SHT30;59417;44.788;10.334;2023-09-08T02:35:37;20.94;61.33
28175;SHT30;59417;44.788;10.334;2023-09-08T02:38:07;20.75;61.78
28175;SHT30;59417;44.788;10.334;2023-09-08T02:40:33;21.01;61.26
28175;SHT30;59417;44.788;10.334;2023-09-08T02:43:00;21.11;60.88
28175;SHT30;59417;44.788;10.334;2023-09-08T02:45:27;20.92;61.68
28175;SHT30;59417;44.788;10.334;2023-09-08T02:47:52;20.36;63.39
28175;SHT30;59417;44.788;10.334;2023-09-08T02:50:18;20.31;63.05
28175;SHT30;59417;44.788;10.334;2023-09-08T02:52:44;20.64;62.31
28175;SHT30;59417;44.788;10.334;2023-09-08T02:55:10;20.87;61.36
28175;SHT30;59417;44.788;10.334;2023-09-08T02:57:37;20.85;61.47
28175;SHT30;59417;44.788;10.334;2023-09-08T03:00:03;20.87;61.70
28175;SHT30;59417;44.788;10.334;2023-09-08T03:02:30;20.53;62.81
28175;SHT30;59417;44.788;10.334;2023-09-08T03:04:55;20.51;63.06
28175;SHT30;59417;44.788;10.334;2023-09-08T03:07:21;20.81;62.68
28175;SHT30;59417;44.788;10.334;2023-09-08T03:09:47;20.78;62.31
28175;SHT30;59417;44.788;10.334;2023-09-08T03:12:13;20.62;62.58
28175;SHT30;59417;44.788;10.334;2023-09-08T03:14:39;20.08;64.59
28175;SHT30;59417;44.788;10.334;2023-09-08T03:17:06;19.83;65.60
28175;SHT30;59417;44.788;10.334;2023-09-08T03:19:32;19.76;65.44
28175;SHT30;59417;44.788;10.334;2023-09-08T03:21:57;19.82;65.53
28175;SHT30;59417;44.788;10.334;2023-09-08T03:24:24;20.24;64.32
28175;SHT30;59417;44.788;10.334;2023-09-08T03:26:50;20.31;64.31
28175;SHT30;59417;44.788;10.334;2023-09-08T03:29:15;20.44;64.83
28175;SHT30;59417;44.788;10.334;2023-09-08T03:31:41;20.05;64.83
28175;SHT30;59417;44.788;10.334;2023-09-08T03:34:07;19.72;65.92
28175;SHT30;59417;44.788;10.334;2023-09-08T03:36:33;19.75;65.96
28175;SHT30;59417;44.788;10.334;2023-09-08T03:39:02;20.02;64.89
28175;SHT30;59417;44.788;10.334;2023-09-08T03:41:27;19.57;66.36
28175;SHT30;59417;44.788;10.334;2023-09-08T03:43:53;19.72;66.23
28175;SHT30;59417;44.788;10.334;2023-09-08T03:46:18;20.02;64.65
28175;SHT30;59417;44.788;10.334;2023-09-08T03:48:44;19.99;64.85
28175;SHT30;59417;44.788;10.334;2023-09-08T03:51:09;20.05;64.83
28175;SHT30;59417;44.788;10.334;2023-09-08T03:53:35;20.08;64.39
28175;SHT30;59417;44.788;10.334;2023-09-08T03:56:01;20.03;64.51
28175;SHT30;59417;44.788;10.334;2023-09-08T03:58:26;19.92;65.25
28175;SHT30;59417;44.788;10.334;2023-09-08T04:00:52;20.05;64.81
28175;SHT30;59417;44.788;10.334;2023-09-08T04:03:18;19.96;65.34
28175;SHT30;59417;44.788;10.334;2023-09-08T04:05:43;19.85;65.80
28175;SHT30;59417;44.788;10.334;2023-09-08T04:08:09;19.86;65.96
28175;SHT30;59417;44.788;10.334;2023-09-08T04:10:34;19.85;65.89
28175;SHT30;59417;44.788;10.334;2023-09-08T04:13:00;19.82;65.96
28175;SHT30;59417;44.788;10.334;2023-09-08T04:15:25;19.83;65.94
28175;SHT30;59417;44.788;10.334;2023-09-08T04:17:51;19.59;66.96
28175;SHT30;59417;44.788;10.334;2023-09-08T04:20:16;19.61;66.88
28175;SHT30;59417;44.788;10.334;2023-09-08T04:22:43;19.82;65.81
28175;SHT30;59417;44.788;10.334;2023-09-08T04:25:09;20.09;64.52
28175;SHT30;59417;44.788;10.334;2023-09-08T04:27:35;20.19;64.47
28175;SHT30;59417;44.788;10.334;2023-09-08T04:30:03;20.23;64.15
28175;SHT30;59417;44.788;10.334;2023-09-08T04:32:29;20.41;63.63
28175;SHT30;59417;44.788;10.334;2023-09-08T04:34:54;20.31;63.58
28175;SHT30;59417;44.788;10.334;2023-09-08T04:37:20;20.14;63.97
28175;SHT30;59417;44.788;10.334;2023-09-08T04:39:46;20.36;63.85
28175;SHT30;59417;44.788;10.334;2023-09-08T04:42:12;20.31;64.03
28175;SHT30;59417;44.788;10.334;2023-09-08T04:44:39;20.10;64.13
28175;SHT30;59417;44.788;10.334;2023-09-08T04:47:05;19.79;65.36
28175;SHT30;59417;44.788;10.334;2023-09-08T04:49:31;19.93;64.95
28175;SHT30;59417;44.788;10.334;2023-09-08T04:51:57;20.19;64.14
28175;SHT30;59417;44.788;10.334;2023-09-08T04:54:24;20.10;64.20
28175;SHT30;59417;44.788;10.334;2023-09-08T04:56:53;20.00;64.58
28175;SHT30;59417;44.788;10.334;2023-09-08T04:59:20;20.14;64.31
28175;SHT30;59417;44.788;10.334;2023-09-08T05:01:46;20.17;63.99
28175;SHT30;59417;44.788;10.334;2023-09-08T05:04:12;20.16;64.34
28175;SHT30;59417;44.788;10.334;2023-09-08T05:06:37;19.85;65.40
28175;SHT30;59417;44.788;10.334;2023-09-08T05:09:03;19.69;65.47
28175;SHT30;59417;44.788;10.334;2023-09-08T05:11:30;19.95;64.79
28175;SHT30;59417;44.788;10.334;2023-09-08T05:13:56;19.96;64.81
28175;SHT30;59417;44.788;10.334;2023-09-08T05:16:24;20.05;64.68
28175;SHT30;59417;44.788;10.334;2023-09-08T05:19:05;20.03;64.90
28175;SHT30;59417;44.788;10.334;2023-09-08T05:21:31;19.96;64.95
28175;SHT30;59417;44.788;10.334;2023-09-08T05:23:57;20.00;64.76
28175;SHT30;59417;44.788;10.334;2023-09-08T05:26:24;20.03;65.70
28175;SHT30;59417;44.788;10.334;2023-09-08T05:28:52;20.13;64.98
28175;SHT30;59417;44.788;10.334;2023-09-08T05:31:17;20.12;64.81
28175;SHT30;59417;44.788;10.334;2023-09-08T05:33:43;19.89;65.53
28175;SHT30;59417;44.788;10.334;2023-09-08T05:36:09;19.86;65.75
28175;SHT30;59417;44.788;10.334;2023-09-08T05:38:35;20.10;64.63
28175;SHT30;59417;44.788;10.334;2023-09-08T05:41:01;20.09;65.24
28175;SHT30;59417;44.788;10.334;2023-09-08T05:43:29;20.14;65.16
28175;SHT30;59417;44.788;10.334;2023-09-08T05:45:55;20.20;65.30
28175;SHT30;59417;44.788;10.334;2023-09-08T05:48:20;20.08;64.96
28175;SHT30;59417;44.788;10.334;2023-09-08T05:50:46;20.08;65.16
28175;SHT30;59417;44.788;10.334;2023-09-08T05:53:12;20.21;65.30
28175;SHT30;59417;44.788;10.334;2023-09-08T05:55:37;20.26;64.30
28175;SHT30;59417;44.788;10.334;2023-09-08T05:58:03;20.48;63.54
28175;SHT30;59417;44.788;10.334;2023-09-08T06:00:29;20.50;64.58
28175;SHT30;59417;44.788;10.334;2023-09-08T06:02:54;20.40;64.39
28175;SHT30;59417;44.788;10.334;2023-09-08T06:05:20;20.44;64.30
28175;SHT30;59417;44.788;10.334;2023-09-08T06:07:46;20.50;63.49
28175;SHT30;59417;44.788;10.334;2023-09-08T06:10:11;20.51;63.59
28175;SHT30;59417;44.788;10.334;2023-09-08T06:12:37;20.65;63.25
28175;SHT30;59417;44.788;10.334;2023-09-08T06:15:04;20.65;63.37
28175;SHT30;59417;44.788;10.334;2023-09-08T06:17:31;20.64;63.56
28175;SHT30;59417;44.788;10.334;2023-09-08T06:19:56;20.70;62.78
28175;SHT30;59417;44.788;10.334;2023-09-08T06:22:22;20.82;63.11
28175;SHT30;59417;44.788;10.334;2023-09-08T06:24:48;20.88;63.42
28175;SHT30;59417;44.788;10.334;2023-09-08T06:27:15;21.02;63.00
28175;SHT30;59417;44.788;10.334;2023-09-08T06:29:40;20.96;62.82
28175;SHT30;59417;44.788;10.334;2023-09-08T06:32:09;20.96;62.68
28175;SHT30;59417;44.788;10.334;2023-09-08T06:34:35;20.99;62.95
28175;SHT30;59417;44.788;10.334;2023-09-08T06:37:02;20.78;63.80
28175;SHT30;59417;44.788;10.334;2023-09-08T06:39:28;20.91;63.35
28175;SHT30;59417;44.788;10.334;2023-09-08T06:41:55;21.09;62.98
28175;SHT30;59417;44.788;10.334;2023-09-08T06:44:21;21.14;62.51
28175;SHT30;59417;44.788;10.334;2023-09-08T06:46:46;21.05;62.83
28175;SHT30;59417;44.788;10.334;2023-09-08T06:49:12;21.08;62.81
28175;SHT30;59417;44.788;10.334;2023-09-08T06:51:38;21.32;62.45
28175;SHT30;59417;44.788;10.334;2023-09-08T06:54:04;21.33;62.67
28175;SHT30;59417;44.788;10.334;2023-09-08T06:56:39;21.53;62.07
28175;SHT30;59417;44.788;10.334;2023-09-08T06:59:06;21.53;62.78
28175;SHT30;59417;44.788;10.334;2023-09-08T07:01:32;21.65;61.69
28175;SHT30;59417;44.788;10.334;2023-09-08T07:03:58;21.74;62.47
28175;SHT30;59417;44.788;10.334;2023-09-08T07:06:24;21.80;61.74
28175;SHT30;59417;44.788;10.334;2023-09-08T07:08:50;21.92;62.13
28175;SHT30;59417;44.788;10.334;2023-09-08T07:11:17;21.98;61.66
28175;SHT30;59417;44.788;10.334;2023-09-08T07:13:43;22.14;60.61
28175;SHT30;59417;44.788;10.334;2023-09-08T07:16:09;22.11;60.84
28175;SHT30;59417;44.788;10.334;2023-09-08T07:18:35;22.25;60.51
28175;SHT30;59417;44.788;10.334;2023-09-08T07:21:03;22.18;60.88
28175;SHT30;59417;44.788;10.334;2023-09-08T07:23:29;22.45;60.45
28175;SHT30;59417;44.788;10.334;2023-09-08T07:25:54;22.55;59.86
28175;SHT30;59417;44.788;10.334;2023-09-08T07:28:24;22.59;59.87
28175;SHT30;59417;44.788;10.334;2023-09-08T07:30:52;22.62;59.44
28175;SHT30;59417;44.788;10.334;2023-09-08T07:33:17;22.68;59.21
28175;SHT30;59417;44.788;10.334;2023-09-08T07:35:45;22.72;59.54
28175;SHT30;59417;44.788;10.334;2023-09-08T07:38:11;22.88;59.90
28175;SHT30;59417;44.788;10.334;2023-09-08T07:40:36;22.92;59.64
28175;SHT30;59417;44.788;10.334;2023-09-08T07:43:01;22.99;59.09
28175;SHT30;59417;44.788;10.334;2023-09-08T07:45:28;23.10;59.03
28175;SHT30;59417;44.788;10.334;2023-09-08T07:47:53;23.33;59.07
28175;SHT30;59417;44.788;10.334;2023-09-08T07:50:22;23.55;57.03
28175;SHT30;59417;44.788;10.334;2023-09-08T07:52:49;23.43;57.91
28175;SHT30;59417;44.788;10.334;2023-09-08T07:55:15;23.49;57.71
28175;SHT30;59417;44.788;10.334;2023-09-08T07:57:41;23.60;56.69
28175;SHT30;59417;44.788;10.334;2023-09-08T08:00:07;23.57;56.94
28175;SHT30;59417;44.788;10.334;2023-09-08T08:02:37;23.57;56.66
28175;SHT30;59417;44.788;10.334;2023-09-08T08:05:03;23.50;57.27
28175;SHT30;59417;44.788;10.334;2023-09-08T08:07:29;23.75;56.50
28175;SHT30;59417;44.788;10.334;2023-09-08T08:09:55;23.78;56.54
28175;SHT30;59417;44.788;10.334;2023-09-08T08:12:20;23.87;56.57
28175;SHT30;59417;44.788;10.334;2023-09-08T08:14:46;23.88;56.07
28175;SHT30;59417;44.788;10.334;2023-09-08T08:17:11;23.92;56.17
28175;SHT30;59417;44.788;10.334;2023-09-08T08:19:38;24.05;55.31
28175;SHT30;59417;44.788;10.334;2023-09-08T08:22:03;24.02;55.35
28175;SHT30;59417;44.788;10.334;2023-09-08T08:24:29;24.02;55.79
28175;SHT30;59417;44.788;10.334;2023-09-08T08:26:54;24.14;55.91
28175;SHT30;59417;44.788;10.334;2023-09-08T08:29:20;24.28;55.48
28175;SHT30;59417;44.788;10.334;2023-09-08T08:31:45;24.41;55.78
28175;SHT30;59417;44.788;10.334;2023-09-08T08:34:10;24.62;55.44
28175;SHT30;59417;44.788;10.334;2023-09-08T08:36:36;24.80;53.79
28175;SHT30;59417;44.788;10.334;2023-09-08T08:39:01;24.90;52.62
28175;SHT30;59417;44.788;10.334;2023-09-08T08:41:28;24.99;52.49
28175;SHT30;59417;44.788;10.334;2023-09-08T08:43:54;24.97;54.01
28175;SHT30;59417;44.788;10.334;2023-09-08T08:46:21;25.06;53.66
28175;SHT30;59417;44.788;10.334;2023-09-08T08:48:47;25.20;52.63
28175;SHT30;59417;44.788;10.334;2023-09-08T08:51:14;25.31;52.07
28175;SHT30;59417;44.788;10.334;2023-09-08T08:53:40;25.31;51.77
28175;SHT30;59417;44.788;10.334;2023-09-08T08:56:07;25.48;51.39
28175;SHT30;59417;44.788;10.334;2023-09-08T08:58:33;25.49;50.74
28175;SHT30;59417;44.788;10.334;2023-09-08T09:01:00;25.69;51.08
28175;SHT30;59417;44.788;10.334;2023-09-08T09:03:26;25.77;51.16
28175;SHT30;59417;44.788;10.334;2023-09-08T09:05:53;25.85;51.55
28175;SHT30;59417;44.788;10.334;2023-09-08T09:08:19;25.92;51.34
28175;SHT30;59417;44.788;10.334;2023-09-08T09:10:44;26.05;50.89
28175;SHT30;59417;44.788;10.334;2023-09-08T09:13:10;26.20;50.86
28175;SHT30;59417;44.788;10.334;2023-09-08T09:15:35;26.28;49.86
28175;SHT30;59417;44.788;10.334;2023-09-08T09:18:04;26.30;49.77
28175;SHT30;59417;44.788;10.334;2023-09-08T09:20:30;26.39;48.97
28175;SHT30;59417;44.788;10.334;2023-09-08T09:22:55;26.40;49.52
28175;SHT30;59417;44.788;10.334;2023-09-08T09:25:25;26.39;49.60
28175;SHT30;59417;44.788;10.334;2023-09-08T09:27:51;26.46;49.83
28175;SHT30;59417;44.788;10.334;2023-09-08T09:30:17;26.60;49.34
28175;SHT30;59417;44.788;10.334;2023-09-08T09:32:44;26.65;49.76
28175;SHT30;59417;44.788;10.334;2023-09-08T09:35:09;26.73;48.99
28175;SHT30;59417;44.788;10.334;2023-09-08T09:37:35;26.87;49.49
28175;SHT30;59417;44.788;10.334;2023-09-08T09:40:01;27.04;48.74
28175;SHT30;59417;44.788;10.334;2023-09-08T09:42:27;27.10;47.97
28175;SHT30;59417;44.788;10.334;2023-09-08T09:44:53;27.16;48.54
28175;SHT30;59417;44.788;10.334;2023-09-08T09:47:19;27.26;46.74
28175;SHT30;59417;44.788;10.334;2023-09-08T09:49:45;27.35;46.49
28175;SHT30;59417;44.788;10.334;2023-09-08T09:52:15;27.39;46.44
28175;SHT30;59417;44.788;10.334;2023-09-08T09:54:45;27.55;46.53
28175;SHT30;59417;44.788;10.334;2023-09-08T09:57:11;27.55;45.51
28175;SHT30;59417;44.788;10.334;2023-09-08T09:59:38;27.55;46.27
28175;SHT30;59417;44.788;10.334;2023-09-08T10:02:03;27.56;46.50
28175;SHT30;59417;44.788;10.334;2023-09-08T10:04:29;27.63;45.79
28175;SHT30;59417;44.788;10.334;2023-09-08T10:06:55;27.72;45.76
28175;SHT30;59417;44.788;10.334;2023-09-08T10:09:23;27.82;45.25
28175;SHT30;59417;44.788;10.334;2023-09-08T10:11:48;27.89;44.54
28175;SHT30;59417;44.788;10.334;2023-09-08T10:14:18;27.92;44.81
28175;SHT30;59417;44.788;10.334;2023-09-08T10:16:44;28.02;45.36
28175;SHT30;59417;44.788;10.334;2023-09-08T10:19:11;28.07;45.42
28175;SHT30;59417;44.788;10.334;2023-09-08T10:21:40;28.17;45.09
28175;SHT30;59417;44.788;10.334;2023-09-08T10:26:37;28.38;44.75
28175;SHT30;59417;44.788;10.334;2023-09-08T10:29:05;28.43;44.23
28175;SHT30;59417;44.788;10.334;2023-09-08T10:31:30;28.40;43.19
28175;SHT30;59417;44.788;10.334;2023-09-08T10:33:56;28.45;44.73
28175;SHT30;59417;44.788;10.334;2023-09-08T10:36:23;28.55;44.10
28175;SHT30;59417;44.788;10.334;2023-09-08T10:38:48;28.63;44.86
28175;SHT30;59417;44.788;10.334;2023-09-08T10:44:06;28.81;44.17
28175;SHT30;59417;44.788;10.334;2023-09-08T10:46:30;28.84;43.76
28175;SHT30;59417;44.788;10.334;2023-09-08T10:49:03;28.95;43.51
28175;SHT30;59417;44.788;10.334;2023-09-08T10:51:29;29.00;43.63
28175;SHT30;59417;44.788;10.334;2023-09-08T10:53:57;29.03;43.87
28175;SHT30;59417;44.788;10.334;2023-09-08T10:56:26;29.09;43.61
28175;SHT30;59417;44.788;10.334;2023-09-08T10:58:52;29.20;44.22
28175;SHT30;59417;44.788;10.334;2023-09-08T11:01:19;29.28;43.85
28175;SHT30;59417;44.788;10.334;2023-09-08T11:03:50;29.33;43.58
28175;SHT30;59417;44.788;10.334;2023-09-08T11:06:27;29.40;43.72
28175;SHT30;59417;44.788;10.334;2023-09-08T11:08:55;29.39;42.79
28175;SHT30;59417;44.788;10.334;2023-09-08T11:11:21;29.45;42.61
28175;SHT30;59417;44.788;10.334;2023-09-08T11:13:47;29.51;43.37
28175;SHT30;59417;44.788;10.334;2023-09-08T11:16:15;29.54;42.50
28175;SHT30;59417;44.788;10.334;2023-09-08T11:18:41;29.61;42.40
28175;SHT30;59417;44.788;10.334;2023-09-08T11:21:08;29.61;42.97
28175;SHT30;59417;44.788;10.334;2023-09-08T11:23:34;29.69;42.95
28175;SHT30;59417;44.788;10.334;2023-09-08T11:25:59;29.74;43.03
28175;SHT30;59417;44.788;10.334;2023-09-08T11:28:26;29.73;42.89
28175;SHT30;59417;44.788;10.334;2023-09-08T11:30:52;29.74;42.88
28175;SHT30;59417;44.788;10.334;2023-09-08T11:33:20;29.70;42.51
28175;SHT30;59417;44.788;10.334;2023-09-08T11:35:50;29.73;41.77
28175;SHT30;59417;44.788;10.334;2023-09-08T11:38:16;29.71;42.08
28175;SHT30;59417;44.788;10.334;2023-09-08T11:40:41;29.61;42.89
28175;SHT30;59417;44.788;10.334;2023-09-08T11:43:07;29.67;43.20
28175;SHT30;59417;44.788;10.334;2023-09-08T11:45:34;29.80;42.90
28175;SHT30;59417;44.788;10.334;2023-09-08T11:48:00;29.91;42.12
28175;SHT30;59417;44.788;10.334;2023-09-08T11:50:25;30.04;42.18
28175;SHT30;59417;44.788;10.334;2023-09-08T11:52:52;30.08;41.56
28175;SHT30;59417;44.788;10.334;2023-09-08T11:55:18;30.12;41.47
28175;SHT30;59417;44.788;10.334;2023-09-08T11:57:45;30.17;41.35
28175;SHT30;59417;44.788;10.334;2023-09-08T12:00:11;30.15;42.18
28175;SHT30;59417;44.788;10.334;2023-09-08T12:02:41;30.22;41.14
28175;SHT30;59417;44.788;10.334;2023-09-08T12:05:11;30.36;41.75
28175;SHT30;59417;44.788;10.334;2023-09-08T12:07:37;30.45;40.48
28175;SHT30;59417;44.788;10.334;2023-09-08T12:10:10;30.49;40.86
28175;SHT30;59417;44.788;10.334;2023-09-08T12:12:45;30.58;41.31
28175;SHT30;59417;44.788;10.334;2023-09-08T12:15:11;30.39;40.86
28175;SHT30;59417;44.788;10.334;2023-09-08T12:17:47;30.34;40.22
28175;SHT30;59417;44.788;10.334;2023-09-08T12:20:16;30.34;41.27
28175;SHT30;59417;44.788;10.334;2023-09-08T12:22:49;30.41;41.86
28175;SHT30;59417;44.788;10.334;2023-09-08T12:25:15;30.44;41.61
28175;SHT30;59417;44.788;10.334;2023-09-08T12:27:41;30.36;41.15
28175;SHT30;59417;44.788;10.334;2023-09-08T12:30:07;30.36;42.37
28175;SHT30;59417;44.788;10.334;2023-09-08T12:32:33;30.38;42.63
28175;SHT30;59417;44.788;10.334;2023-09-08T12:35:00;30.39;41.79
28175;SHT30;59417;44.788;10.334;2023-09-08T12:37:28;30.42;41.75
28175;SHT30;59417;44.788;10.334;2023-09-08T12:39:55;30.44;40.94
28175;SHT30;59417;44.788;10.334;2023-09-08T12:42:20;30.47;41.66
28175;SHT30;59417;44.788;10.334;2023-09-08T12:44:47;30.58;41.66
28175;SHT30;59417;44.788;10.334;2023-09-08T12:47:13;30.58;41.06
28175;SHT30;59417;44.788;10.334;2023-09-08T12:49:39;30.62;40.78
28175;SHT30;59417;44.788;10.334;2023-09-08T12:52:04;30.61;40.28
28175;SHT30;59417;44.788;10.334;2023-09-08T12:54:30;30.58;39.70
28175;SHT30;59417;44.788;10.334;2023-09-08T12:56:56;30.58;41.31
28175;SHT30;59417;44.788;10.334;2023-09-08T12:59:21;30.55;40.47
28175;SHT30;59417;44.788;10.334;2023-09-08T13:01:46;30.54;40.64
28175;SHT30;59417;44.788;10.334;2023-09-08T13:04:12;30.42;41.29
28175;SHT30;59417;44.788;10.334;2023-09-08T13:06:38;30.52;41.36
28175;SHT30;59417;44.788;10.334;2023-09-08T13:09:03;30.54;41.67
28175;SHT30;59417;44.788;10.334;2023-09-08T13:11:30;30.54;42.36
28175;SHT30;59417;44.788;10.334;2023-09-08T13:13:56;30.54;41.96
28175;SHT30;59417;44.788;10.334;2023-09-08T13:16:21;30.48;40.58
28175;SHT30;59417;44.788;10.334;2023-09-08T13:18:47;30.42;41.20
28175;SHT30;59417;44.788;10.334;2023-09-08T13:21:14;30.44;41.49
28175;SHT30;59417;44.788;10.334;2023-09-08T13:23:40;30.41;42.04
28175;SHT30;59417;44.788;10.334;2023-09-08T13:26:05;30.42;41.72
28175;SHT30;59417;44.788;10.334;2023-09-08T13:28:31;30.29;42.56
28175;SHT30;59417;44.788;10.334;2023-09-08T13:30:56;30.24;41.80
28175;SHT30;59417;44.788;10.334;2023-09-08T13:33:22;30.27;42.62
28175;SHT30;59417;44.788;10.334;2023-09-08T13:35:47;30.27;42.17
28175;SHT30;59417;44.788;10.334;2023-09-08T13:38:13;30.27;40.93
28175;SHT30;59417;44.788;10.334;2023-09-08T13:40:38;30.24;41.62
28175;SHT30;59417;44.788;10.334;2023-09-08T13:43:04;30.21;40.99
28175;SHT30;59417;44.788;10.334;2023-09-08T13:45:29;30.08;40.65
28175;SHT30;59417;44.788;10.334;2023-09-08T13:47:55;30.01;41.98
28175;SHT30;59417;44.788;10.334;2023-09-08T13:50:20;30.05;42.25
28175;SHT30;59417;44.788;10.334;2023-09-08T13:52:48;30.08;42.28
28175;SHT30;59417;44.788;10.334;2023-09-08T13:55:14;29.98;41.60
28175;SHT30;59417;44.788;10.334;2023-09-08T13:57:39;29.90;42.22
28175;SHT30;59417;44.788;10.334;2023-09-08T14:00:05;29.90;41.73
28175;SHT30;59417;44.788;10.334;2023-09-08T14:02:36;29.96;42.50
28175;SHT30;59417;44.788;10.334;2023-09-08T14:05:02;29.91;42.37
28175;SHT30;59417;44.788;10.334;2023-09-08T14:07:28;29.89;42.85
28175;SHT30;59417;44.788;10.334;2023-09-08T14:09:53;29.89;42.48
28175;SHT30;59417;44.788;10.334;2023-09-08T14:12:19;29.96;43.13
28175;SHT30;59417;44.788;10.334;2023-09-08T14:14:44;29.93;43.00
28175;SHT30;59417;44.788;10.334;2023-09-08T14:17:10;29.97;42.21
28175;SHT30;59417;44.788;10.334;2023-09-08T14:19:35;29.97;42.07
28175;SHT30;59417;44.788;10.334;2023-09-08T14:22:01;29.84;42.37
28175;SHT30;59417;44.788;10.334;2023-09-08T14:24:26;29.77;41.99
28175;SHT30;59417;44.788;10.334;2023-09-08T14:26:52;29.71;41.41
28175;SHT30;59417;44.788;10.334;2023-09-08T14:29:17;29.71;42.10
28175;SHT30;59417;44.788;10.334;2023-09-08T14:31:43;29.77;42.43
28175;SHT30;59417;44.788;10.334;2023-09-08T14:34:09;29.76;42.70
28175;SHT30;59417;44.788;10.334;2023-09-08T14:36:34;29.73;42.49
28175;SHT30;59417;44.788;10.334;2023-09-08T14:38:59;29.74;43.44
28175;SHT30;59417;44.788;10.334;2023-09-08T14:41:25;29.80;42.81
28175;SHT30;59417;44.788;10.334;2023-09-08T14:43:51;29.76;42.19
28175;SHT30;59417;44.788;10.334;2023-09-08T14:46:17;29.70;42.92
28175;SHT30;59417;44.788;10.334;2023-09-08T14:48:42;29.69;43.12
28175;SHT30;59417;44.788;10.334;2023-09-08T14:51:08;29.76;43.53
28175;SHT30;59417;44.788;10.334;2023-09-08T14:53:34;29.73;41.25
28175;SHT30;59417;44.788;10.334;2023-09-08T14:55:59;29.66;42.76
28175;SHT30;59417;44.788;10.334;2023-09-08T14:58:25;29.54;43.38
28175;SHT30;59417;44.788;10.334;2023-09-08T15:00:51;29.49;43.36
28175;SHT30;59417;44.788;10.334;2023-09-08T15:03:17;29.49;42.99
28175;SHT30;59417;44.788;10.334;2023-09-08T15:05:42;29.46;42.96
28175;SHT30;59417;44.788;10.334;2023-09-08T15:08:08;29.42;42.91
28175;SHT30;59417;44.788;10.334;2023-09-08T15:10:33;29.42;43.56
28175;SHT30;59417;44.788;10.334;2023-09-08T15:12:59;29.53;43.71
28175;SHT30;59417;44.788;10.334;2023-09-08T15:15:24;29.54;42.24
28175;SHT30;59417;44.788;10.334;2023-09-08T15:17:51;29.47;42.68
28175;SHT30;59417;44.788;10.334;2023-09-08T15:20:16;29.54;43.39
28175;SHT30;59417;44.788;10.334;2023-09-08T15:22:41;29.45;43.31